首页
METAR-TAF:

METAR-TAF

机场 :

柏林-泰格尔奥托·利林塔尔机场

柏林, 德国

纬度: 52-34N, 经度: 013-19E, 海拔: 37米

当前天气观测

该预报发布于36分钟前的05:20 UTC
风速5节,风向,在北转西北东北之间变化
温度 3°C
湿度 87%
气压 1022 hPa
能见度10公里或以上
少量云层高于700英尺
多云层高于1100英尺

METAR: EDDT 120520Z 36005KT 330V040 9999 FEW007 BKN011 03/01 Q1022 TEMPO BKN008

时间: 06:56 (05:56 UTC)

预报

该预报发布于56分钟前的05:00 UTC
预报有效从12日的 06点(UTC)到 13日的 06点(UTC)
风速4节,风向北转东北
能见度10公里或以上
散云层高于1500英尺
多云层高于3000英尺
短暂存在
从 12日的 06点(UTC)到 12日的 10点(UTC)
多云层高于900英尺
几率 30% :
短暂存在
从 13日的 00点(UTC)到 13日的 06点(UTC)
能見度: 4000
多云层高于800英尺
轻雾

TAF: EDDT 120500Z 1206/1306 03004KT 9999 SCT015 BKN030 TEMPO 1206/1210 BKN009 PROB30 TEMPO 1300/1306 4000 BR BKN008

超过4000个机场的气象观测和天气预报(METAR&TAF报告)。

可查询的气象台以黄色和红色小点在地图上表示。

将鼠标移到小点上方,可查看气象台名称。

然后点击查看天气观测和预报。

如需切换地图:点击带黑十字的绿色按钮放大地图;点击带横线的绿色按钮缩小地图;或者点击绿色箭头查看邻近地区的地图。


METAR-TAF: